Time;durP1;ratioP1;P1;durP2;ratioP2;P2;SDS_P1;SDS_P2;PMS_P1;PMS_P2;Temp;Humidity;BMP_temperature;BMP_pressure;BME280_temperature;BME280_humidity;BME280_pressure;Samples;Min_cycle;Max_cycle;Signal;HPM_P1;HPM_P2
2022/10/29 00:00:03;;;;;;;66.83;9.17;;;15.30;1.00;;;;;;5052857;28;20467;-74
2022/10/29 00:02:31;;;;;;;64.50;8.90;;;15.30;1.00;;;;;;5054491;28;20444;-74
2022/10/29 00:04:58;;;;;;;67.20;9.10;;;15.30;1.00;;;;;;5054230;28;20455;-74
2022/10/29 00:07:24;;;;;;;66.63;8.80;;;15.30;1.00;;;;;;5054434;28;20476;-74
2022/10/29 00:09:51;;;;;;;64.80;9.03;;;15.20;1.00;;;;;;5053540;28;20448;-74
2022/10/29 00:12:18;;;;;;;67.90;9.90;;;15.20;1.00;;;;;;5054345;28;20448;-74
2022/10/29 00:14:45;;;;;;;68.90;9.90;;;15.20;1.00;;;;;;5054047;28;20490;-74
2022/10/29 00:17:12;;;;;;;65.33;8.77;;;15.10;1.00;;;;;;5054026;28;20464;-74
2022/10/29 00:19:40;;;;;;;66.50;8.53;;;15.00;1.00;;;;;;5053292;28;20824;-74
2022/10/29 00:22:06;;;;;;;65.13;9.13;;;15.00;1.00;;;;;;5054334;28;20755;-74
2022/10/29 00:24:33;;;;;;;66.70;9.87;;;15.00;1.00;;;;;;5054176;28;20444;-74
2022/10/29 00:27:00;;;;;;;69.10;9.87;;;15.00;1.00;;;;;;5053995;28;20478;-74
2022/10/29 00:29:27;;;;;;;68.03;9.63;;;14.90;1.00;;;;;;5053309;28;20471;-74
2022/10/29 00:31:54;;;;;;;68.63;8.67;;;14.90;1.00;;;;;;5054271;28;20455;-74
2022/10/29 00:34:20;;;;;;;72.00;8.77;;;14.90;1.00;;;;;;5053534;28;20468;-74
2022/10/29 00:36:48;;;;;;;75.63;9.93;;;14.90;1.00;;;;;;5053562;28;20472;-74
2022/10/29 00:39:16;;;;;;;66.30;9.17;;;14.90;1.00;;;;;;5053114;28;20460;-74
2022/10/29 00:41:43;;;;;;;66.50;10.00;;;14.80;1.00;;;;;;5053969;28;20444;-74
2022/10/29 00:44:27;;;;;;;66.73;9.30;;;14.60;1.00;;;;;;5053767;28;20448;-74
2022/10/29 00:47:01;;;;;;;73.40;9.43;;;14.60;1.00;;;;;;5053436;28;20468;-74
2022/10/29 00:49:28;;;;;;;67.27;9.93;;;14.40;1.00;;;;;;5052768;28;20451;-74
2022/10/29 00:51:57;;;;;;;68.20;10.00;;;14.50;1.00;;;;;;5053692;28;20999;-74
2022/10/29 00:54:26;;;;;;;67.93;10.10;;;14.50;1.00;;;;;;5053572;28;20492;-74
2022/10/29 00:56:57;;;;;;;75.40;9.70;;;14.60;1.00;;;;;;5053303;28;20559;-74
2022/10/29 00:59:24;;;;;;;71.40;8.47;;;14.60;1.00;;;;;;5052569;28;20821;-74
2022/10/29 01:01:52;;;;;;;66.87;8.70;;;14.60;1.00;;;;;;5053462;28;20440;-74
2022/10/29 01:04:21;;;;;;;67.77;9.57;;;14.60;1.00;;;;;;5053413;28;20452;-74
2022/10/29 01:06:48;;;;;;;70.67;9.83;;;14.70;1.00;;;;;;5053427;28;20464;-74
2022/10/29 01:09:17;;;;;;;64.77;9.13;;;14.70;1.00;;;;;;5052373;28;20460;-74
2022/10/29 01:11:56;;;;;;;70.87;9.17;;;14.70;1.00;;;;;;5053078;28;20458;-74
2022/10/29 01:14:32;;;;;;;67.27;9.30;;;14.70;1.00;;;;;;5053363;28;20454;-74
2022/10/29 01:17:07;;;;;;;69.67;9.40;;;14.60;1.00;;;;;;5053088;28;20467;-74
2022/10/29 01:20:03;;;;;;;63.87;8.33;;;14.70;1.00;;;;;;5052385;28;20463;-74
2022/10/29 01:22:36;;;;;;;67.43;9.00;;;14.70;1.00;;;;;;5053187;28;20458;-74
2022/10/29 01:25:36;;;;;;;67.63;10.33;;;14.70;1.00;;;;;;5053103;28;20882;-74
2022/10/29 01:28:15;;;;;;;72.90;9.03;;;14.70;1.00;;;;;;5041217;28;20476;-74
2022/10/29 01:31:06;;;;;;;66.10;9.00;;;14.70;1.00;;;;;;5048190;28;20440;-74
2022/10/29 01:33:41;;;;;;;70.23;10.40;;;14.70;1.00;;;;;;5052493;28;20452;-74
2022/10/29 01:36:17;;;;;;;66.33;8.70;;;14.70;1.00;;;;;;5052852;28;20487;-74
2022/10/29 01:38:51;;;;;;;65.70;8.80;;;14.80;1.00;;;;;;5052015;28;20467;-74
2022/10/29 01:41:24;;;;;;;69.13;9.60;;;14.80;1.00;;;;;;5052698;28;20458;-74
2022/10/29 01:43:55;;;;;;;69.80;9.20;;;14.80;1.00;;;;;;5052634;28;20838;-74
2022/10/29 01:46:28;;;;;;;68.03;10.20;;;14.70;1.00;;;;;;5052336;28;20476;-74
2022/10/29 01:49:02;;;;;;;66.70;10.10;;;14.70;1.00;;;;;;5051899;28;20448;-74
2022/10/29 01:51:31;;;;;;;73.37;9.67;;;14.80;1.00;;;;;;5052482;28;20448;-74
2022/10/29 01:54:00;;;;;;;66.03;7.57;;;14.80;1.00;;;;;;5052369;28;20446;-74
2022/10/29 01:56:26;;;;;;;69.23;9.80;;;14.70;1.00;;;;;;5052203;28;20495;-74
2022/10/29 01:58:56;;;;;;;67.00;9.20;;;14.70;1.00;;;;;;5051240;28;20841;-74
2022/10/29 02:01:38;;;;;;;70.87;9.77;;;14.70;1.00;;;;;;5051888;28;20958;-74
2022/10/29 02:04:23;;;;;;;67.73;8.40;;;14.70;1.00;;;;;;5052218;28;20936;-74
2022/10/29 02:06:58;;;;;;;64.50;8.47;;;14.60;1.00;;;;;;5052097;28;20471;-74
2022/10/29 02:09:31;;;;;;;66.70;9.13;;;14.70;1.00;;;;;;5051308;28;20439;-74
2022/10/29 02:12:02;;;;;;;64.90;8.27;;;14.60;1.00;;;;;;5052278;28;20444;-74
2022/10/29 02:14:35;;;;;;;70.57;9.47;;;14.60;1.00;;;;;;5052494;28;20470;-74
2022/10/29 02:17:04;;;;;;;66.70;7.77;;;14.60;1.00;;;;;;5048902;28;20463;-74
2022/10/29 02:19:31;;;;;;;68.17;7.70;;;14.50;1.00;;;;;;5051245;28;20459;-74
2022/10/29 02:21:58;;;;;;;64.47;8.23;;;14.50;1.00;;;;;;5051401;28;20456;-74
2022/10/29 02:24:25;;;;;;;66.97;7.27;;;14.50;1.00;;;;;;5051713;28;20448;-74
2022/10/29 02:26:52;;;;;;;64.73;8.97;;;14.50;1.00;;;;;;5051912;28;20468;-74
2022/10/29 02:29:19;;;;;;;69.10;9.40;;;14.60;1.00;;;;;;5051380;28;20448;-74
2022/10/29 02:31:46;;;;;;;71.27;9.20;;;14.50;1.00;;;;;;5051930;28;20448;-74
2022/10/29 02:34:14;;;;;;;67.60;9.20;;;14.50;1.00;;;;;;5051652;28;20835;-74
2022/10/29 02:36:41;;;;;;;71.93;8.23;;;14.60;1.00;;;;;;5051595;28;20498;-73
2022/10/29 02:39:08;;;;;;;66.30;7.83;;;14.60;1.00;;;;;;5050953;28;20459;-74
2022/10/29 02:41:35;;;;;;;65.20;8.60;;;14.70;1.00;;;;;;5051723;28;20455;-74
2022/10/29 02:44:01;;;;;;;64.30;8.50;;;14.60;1.00;;;;;;5051804;28;20832;-74
2022/10/29 02:46:29;;;;;;;65.07;8.80;;;14.70;1.00;;;;;;5051738;28;20471;-74
2022/10/29 02:48:56;;;;;;;68.57;9.30;;;14.70;1.00;;;;;;5051067;28;20456;-74
2022/10/29 02:51:24;;;;;;;67.40;7.70;;;14.70;1.00;;;;;;5051671;28;20452;-74
2022/10/29 02:53:50;;;;;;;64.27;8.00;;;14.80;1.00;;;;;;5051709;28;20958;-74
2022/10/29 02:56:17;;;;;;;70.90;9.57;;;14.80;1.00;;;;;;5051746;28;20488;-74
2022/10/29 02:58:44;;;;;;;66.97;8.30;;;14.80;1.00;;;;;;5050991;28;20450;-74
2022/10/29 03:01:11;;;;;;;67.50;7.97;;;14.80;1.00;;;;;;5051678;28;20462;-74
2022/10/29 03:03:38;;;;;;;69.20;8.23;;;14.90;1.00;;;;;;5051630;28;20472;-74
2022/10/29 03:06:11;;;;;;;66.70;8.57;;;14.80;1.00;;;;;;5051557;28;20453;-74
2022/10/29 03:08:39;;;;;;;65.83;8.40;;;14.90;1.00;;;;;;5050998;28;20451;-74
2022/10/29 03:11:06;;;;;;;68.63;8.30;;;14.90;1.00;;;;;;5051615;28;20527;-74
2022/10/29 03:13:33;;;;;;;67.57;9.00;;;14.90;1.00;;;;;;5051526;28;20448;-74
2022/10/29 03:15:59;;;;;;;67.83;9.00;;;15.00;1.00;;;;;;5051330;28;20484;-74
2022/10/29 03:18:26;;;;;;;67.63;8.97;;;14.90;1.00;;;;;;5051441;28;20470;-74
2022/10/29 03:20:53;;;;;;;68.17;7.50;;;15.00;1.00;;;;;;5050893;28;20454;-74
2022/10/29 03:23:21;;;;;;;65.20;8.37;;;15.00;1.00;;;;;;5051410;28;20456;-74
2022/10/29 03:25:52;;;;;;;65.80;7.97;;;15.10;1.00;;;;;;5051654;28;20454;-74
2022/10/29 03:28:19;;;;;;;64.70;8.10;;;15.10;1.00;;;;;;5051422;28;20510;-74
2022/10/29 03:30:45;;;;;;;66.47;7.80;;;15.10;1.00;;;;;;5050642;28;20451;-74
2022/10/29 03:33:12;;;;;;;65.63;7.97;;;15.20;1.00;;;;;;5051074;28;20448;-74
2022/10/29 03:35:39;;;;;;;63.70;7.50;;;15.20;1.00;;;;;;5054858;28;20492;-74
2022/10/29 03:38:06;;;;;;;66.30;8.13;;;15.20;1.00;;;;;;5054969;28;20472;-74
2022/10/29 03:40:33;;;;;;;67.10;8.10;;;15.20;1.00;;;;;;5054240;28;20945;-74
2022/10/29 03:43:01;;;;;;;66.00;8.03;;;15.20;1.00;;;;;;5054980;28;20448;-74
2022/10/29 03:45:28;;;;;;;70.27;9.20;;;15.10;1.00;;;;;;5054977;28;20448;-74
2022/10/29 03:47:55;;;;;;;65.83;8.50;;;15.20;1.00;;;;;;5054615;28;20464;-74
2022/10/29 03:50:22;;;;;;;71.33;8.60;;;15.20;1.00;;;;;;5053876;28;20482;-74
2022/10/29 03:52:49;;;;;;;69.20;8.70;;;15.20;1.00;;;;;;5054789;28;20451;-74
2022/10/29 03:55:16;;;;;;;65.53;8.40;;;15.10;1.00;;;;;;5054688;28;20448;-74
2022/10/29 03:57:43;;;;;;;66.43;8.47;;;15.10;1.00;;;;;;5054364;28;20517;-74
2022/10/29 04:00:12;;;;;;;72.33;8.73;;;15.10;1.00;;;;;;5053885;28;20464;-74
2022/10/29 04:02:39;;;;;;;65.37;7.67;;;15.10;1.00;;;;;;5054838;28;20456;-74
2022/10/29 04:05:06;;;;;;;64.53;8.00;;;15.10;1.00;;;;;;5054876;28;20454;-74
2022/10/29 04:07:33;;;;;;;71.40;8.87;;;15.10;1.00;;;;;;5054350;28;20499;-74
2022/10/29 04:10:00;;;;;;;73.37;8.80;;;15.10;1.00;;;;;;5053781;28;20823;-74
2022/10/29 04:12:26;;;;;;;67.23;8.90;;;15.10;1.00;;;;;;5054376;28;20459;-74
2022/10/29 04:14:53;;;;;;;63.40;8.07;;;15.00;1.00;;;;;;5054238;28;20448;-74
2022/10/29 04:17:21;;;;;;;65.70;8.20;;;15.10;1.00;;;;;;5054316;28;20498;-74
2022/10/29 04:19:48;;;;;;;67.70;8.27;;;15.10;1.00;;;;;;5053910;28;20449;-74
2022/10/29 04:22:15;;;;;;;65.07;8.47;;;15.10;1.00;;;;;;5054504;28;20490;-74
2022/10/29 04:24:41;;;;;;;69.97;8.40;;;15.10;1.00;;;;;;5054298;28;20450;-74
2022/10/29 04:27:08;;;;;;;65.13;7.33;;;15.10;1.00;;;;;;5054032;28;21010;-74
2022/10/29 04:29:35;;;;;;;64.87;7.53;;;15.10;1.00;;;;;;5053617;28;20452;-74
2022/10/29 04:32:02;;;;;;;66.37;7.43;;;15.00;1.00;;;;;;5054169;28;20456;-74
2022/10/29 04:34:30;;;;;;;68.33;8.43;;;15.00;1.00;;;;;;5053877;28;20460;-74
2022/10/29 04:36:57;;;;;;;69.20;8.10;;;15.10;1.00;;;;;;5053990;28;20496;-73
2022/10/29 04:39:24;;;;;;;63.40;7.90;;;15.10;1.00;;;;;;5053149;28;20448;-74
2022/10/29 04:41:51;;;;;;;66.27;8.00;;;15.10;1.00;;;;;;5053903;28;20455;-74
2022/10/29 04:44:18;;;;;;;76.60;7.87;;;15.00;1.00;;;;;;5053249;28;20457;-74
2022/10/29 04:46:45;;;;;;;64.80;7.57;;;14.90;1.00;;;;;;5053667;28;20476;-74
2022/10/29 04:49:12;;;;;;;64.90;7.03;;;14.90;1.00;;;;;;5053074;28;20832;-74
2022/10/29 04:51:40;;;;;;;66.80;7.10;;;15.00;1.00;;;;;;5054096;28;20452;-74
2022/10/29 04:54:07;;;;;;;69.60;8.70;;;15.00;1.00;;;;;;5053717;28;20448;-74
2022/10/29 04:56:34;;;;;;;69.70;7.20;;;14.90;1.00;;;;;;5053297;28;20488;-74
2022/10/29 04:59:00;;;;;;;69.17;8.90;;;14.90;1.00;;;;;;5053005;28;20460;-74
2022/10/29 05:01:27;;;;;;;76.00;8.00;;;14.90;1.00;;;;;;5053622;28;20538;-74
2022/10/29 05:03:54;;;;;;;63.70;7.43;;;14.90;1.00;;;;;;5053412;28;20452;-74
2022/10/29 05:06:21;;;;;;;70.33;8.33;;;14.80;1.00;;;;;;5053365;28;20468;-74
2022/10/29 05:08:49;;;;;;;63.80;7.63;;;14.80;1.00;;;;;;5052799;28;20452;-74
2022/10/29 05:11:15;;;;;;;66.57;8.00;;;14.70;1.00;;;;;;5053113;28;20462;-74
2022/10/29 05:13:44;;;;;;;64.30;7.37;;;14.70;1.00;;;;;;5053468;28;20486;-74
2022/10/29 05:16:10;;;;;;;67.53;7.40;;;14.60;1.00;;;;;;5053441;28;20873;-74
2022/10/29 05:18:38;;;;;;;66.23;7.20;;;14.50;1.00;;;;;;5052561;28;20456;-74
2022/10/29 05:21:05;;;;;;;65.00;7.83;;;14.50;1.00;;;;;;5053154;28;20460;-74
2022/10/29 05:23:32;;;;;;;66.97;8.93;;;14.40;1.00;;;;;;5052876;28;20977;-74
2022/10/29 05:26:01;;;;;;;67.47;8.17;;;14.40;1.00;;;;;;5053178;28;20448;-74
2022/10/29 05:28:28;;;;;;;70.17;7.93;;;14.30;1.00;;;;;;5053177;28;20444;-74
2022/10/29 05:30:54;;;;;;;64.20;7.20;;;14.30;1.00;;;;;;5052608;28;20444;-74
2022/10/29 05:33:23;;;;;;;65.07;8.23;;;14.20;1.00;;;;;;5052836;28;20535;-74
2022/10/29 05:35:50;;;;;;;65.20;6.70;;;14.20;1.00;;;;;;5052797;28;20819;-74
2022/10/29 05:38:17;;;;;;;69.47;7.50;;;14.00;1.00;;;;;;5052494;28;20469;-74
2022/10/29 05:40:44;;;;;;;66.30;8.10;;;14.10;1.00;;;;;;5051995;28;20449;-74
2022/10/29 05:43:13;;;;;;;67.10;7.57;;;14.00;1.00;;;;;;5052679;28;20455;-74
2022/10/29 05:45:41;;;;;;;68.70;8.03;;;14.00;1.00;;;;;;5052757;28;20463;-74
2022/10/29 05:48:08;;;;;;;64.97;8.37;;;14.00;1.00;;;;;;5052480;28;20468;-74
2022/10/29 05:50:35;;;;;;;64.00;7.57;;;14.00;1.00;;;;;;5051722;28;20466;-74
2022/10/29 05:53:03;;;;;;;63.63;7.73;;;14.00;1.00;;;;;;5052646;28;20477;-74
2022/10/29 05:55:31;;;;;;;69.40;7.60;;;13.90;1.00;;;;;;5052635;28;20453;-74
2022/10/29 05:57:59;;;;;;;63.43;6.97;;;13.90;1.00;;;;;;5051750;28;20494;-74
2022/10/29 06:00:30;;;;;;;65.60;7.60;;;13.80;1.00;;;;;;5051656;28;20544;-74
2022/10/29 06:02:57;;;;;;;65.97;7.70;;;13.80;1.00;;;;;;5052401;28;20448;-74
2022/10/29 06:05:24;;;;;;;67.17;8.37;;;13.80;1.00;;;;;;5052166;28;20475;-74
2022/10/29 06:07:55;;;;;;;63.63;7.70;;;13.70;1.00;;;;;;5052297;28;20522;-73
2022/10/29 06:10:22;;;;;;;69.87;7.90;;;13.70;1.00;;;;;;5051469;28;20945;-73
2022/10/29 06:12:49;;;;;;;70.60;7.33;;;13.70;1.00;;;;;;5052276;28;20452;-73
2022/10/29 06:15:16;;;;;;;63.30;7.37;;;13.70;1.00;;;;;;5052124;28;20945;-73
2022/10/29 06:17:46;;;;;;;64.87;7.73;;;13.70;1.00;;;;;;5051762;28;21022;-73
2022/10/29 06:20:14;;;;;;;66.13;7.20;;;13.60;1.00;;;;;;5051482;28;20456;-73
2022/10/29 06:22:41;;;;;;;66.10;7.87;;;13.60;1.00;;;;;;5052344;28;20458;-73
2022/10/29 06:25:08;;;;;;;66.43;7.90;;;13.70;1.00;;;;;;5051949;28;20452;-73
2022/10/29 06:27:35;;;;;;;67.97;9.10;;;13.70;1.00;;;;;;5051847;28;20988;-73
2022/10/29 06:30:02;;;;;;;65.77;8.77;;;13.70;1.00;;;;;;5051127;28;20466;-73
2022/10/29 06:32:29;;;;;;;68.20;8.70;;;13.70;1.00;;;;;;5051646;28;20448;-73
2022/10/29 06:34:57;;;;;;;66.60;9.03;;;13.70;1.00;;;;;;5051813;28;20456;-73
2022/10/29 06:37:24;;;;;;;68.23;9.40;;;13.80;1.00;;;;;;5051733;28;20875;-73
2022/10/29 06:39:51;;;;;;;69.00;9.33;;;13.90;1.00;;;;;;5051055;28;20453;-73
2022/10/29 06:42:18;;;;;;;64.70;8.63;;;13.90;1.00;;;;;;5051739;28;20452;-73
2022/10/29 06:44:44;;;;;;;65.80;7.67;;;14.00;1.00;;;;;;5051690;28;20456;-73
2022/10/29 06:47:11;;;;;;;67.30;8.93;;;14.00;1.00;;;;;;5051834;28;20479;-73
2022/10/29 06:49:38;;;;;;;65.70;9.47;;;14.00;1.00;;;;;;5050832;28;20451;-73
2022/10/29 06:52:06;;;;;;;66.83;9.20;;;14.00;1.00;;;;;;5051727;28;20940;-74
2022/10/29 06:54:33;;;;;;;69.30;9.70;;;14.10;1.00;;;;;;5051759;28;20444;-73
2022/10/29 06:57:00;;;;;;;65.47;9.40;;;14.20;1.00;;;;;;5051668;28;20488;-73
2022/10/29 06:59:26;;;;;;;76.47;10.13;;;14.20;1.00;;;;;;5050718;28;20463;-73
2022/10/29 07:01:53;;;;;;;73.70;10.47;;;14.20;1.00;;;;;;5051796;28;20812;-73
2022/10/29 07:04:20;;;;;;;76.33;10.57;;;14.30;1.00;;;;;;5051718;28;20813;-73
2022/10/29 07:06:47;;;;;;;74.10;10.03;;;14.30;1.00;;;;;;5051400;28;20980;-73
2022/10/29 07:09:15;;;;;;;66.60;8.90;;;14.40;1.00;;;;;;5053912;28;20452;-73
2022/10/29 07:11:42;;;;;;;66.93;9.10;;;14.30;1.00;;;;;;5055605;28;20454;-73
2022/10/29 07:14:09;;;;;;;79.20;11.33;;;14.30;1.00;;;;;;5055402;28;20463;-73
2022/10/29 07:16:36;;;;;;;75.20;11.50;;;14.30;1.00;;;;;;5055412;28;20896;-73
2022/10/29 07:19:03;;;;;;;74.87;11.50;;;14.30;1.00;;;;;;5054776;28;20490;-73
2022/10/29 07:21:30;;;;;;;81.73;11.03;;;14.50;1.00;;;;;;5055465;28;20912;-73
2022/10/29 07:23:57;;;;;;;71.13;10.70;;;14.60;1.00;;;;;;5055317;28;20452;-73
2022/10/29 07:26:25;;;;;;;73.80;10.10;;;14.70;1.00;;;;;;5055359;28;20475;-73
2022/10/29 07:28:56;;;;;;;72.50;9.13;;;14.60;1.00;;;;;;5054439;28;20452;-73
2022/10/29 07:31:23;;;;;;;79.77;13.17;;;14.80;1.00;;;;;;5055419;28;20513;-73
2022/10/29 07:33:49;;;;;;;69.10;9.73;;;14.90;1.00;;;;;;5055298;28;20459;-73
2022/10/29 07:36:16;;;;;;;70.80;10.30;;;14.50;1.00;;;;;;5054900;28;20822;-75
2022/10/29 07:38:43;;;;;;;66.90;9.13;;;14.30;1.00;;;;;;5054446;28;20978;-75
2022/10/29 07:41:10;;;;;;;64.53;8.33;;;14.20;1.00;;;;;;5055273;28;20448;-74
2022/10/29 07:43:38;;;;;;;79.27;9.60;;;14.60;1.00;;;;;;5055165;28;20456;-75
2022/10/29 07:46:05;;;;;;;72.30;10.00;;;14.90;1.00;;;;;;5054984;28;20453;-74
2022/10/29 07:48:32;;;;;;;75.00;10.30;;;14.90;1.00;;;;;;5054579;28;20464;-74
2022/10/29 07:51:00;;;;;;;74.10;10.17;;;15.00;1.00;;;;;;5054887;28;20822;-74
2022/10/29 07:53:26;;;;;;;72.77;10.00;;;15.00;1.00;;;;;;5054810;28;20805;-74
2022/10/29 07:55:54;;;;;;;67.00;9.13;;;15.10;1.00;;;;;;5054867;28;20452;-74
2022/10/29 07:58:21;;;;;;;72.13;10.13;;;15.50;1.00;;;;;;5054601;28;20496;-74
2022/10/29 08:00:49;;;;;;;66.10;9.17;;;15.40;1.00;;;;;;5054217;28;20479;-74
2022/10/29 08:03:16;;;;;;;66.03;9.80;;;15.60;1.00;;;;;;5054676;28;20459;-74
2022/10/29 08:05:44;;;;;;;66.07;8.97;;;15.60;1.00;;;;;;5054494;28;20455;-75
2022/10/29 08:08:11;;;;;;;68.63;8.63;;;15.90;1.00;;;;;;5054332;28;20476;-74
2022/10/29 08:10:38;;;;;;;65.53;8.47;;;15.70;1.00;;;;;;5054391;28;20454;-74
2022/10/29 08:13:06;;;;;;;72.23;9.37;;;15.60;1.00;;;;;;5054133;28;20949;-74
2022/10/29 08:15:34;;;;;;;72.33;8.93;;;15.70;1.00;;;;;;5054670;28;20448;-74
2022/10/29 08:18:03;;;;;;;68.97;8.70;;;15.80;1.00;;;;;;5054187;28;20488;-74
2022/10/29 08:20:30;;;;;;;69.23;9.20;;;16.20;1.00;;;;;;5052665;28;20543;-74
2022/10/29 08:22:59;;;;;;;69.17;8.37;;;16.80;1.00;;;;;;5054190;28;20452;-74
2022/10/29 08:25:26;;;;;;;70.47;9.10;;;17.30;1.00;;;;;;5054377;28;20448;-74
2022/10/29 08:28:00;;;;;;;67.00;7.73;;;17.50;1.00;;;;;;5054010;28;20465;-74
2022/10/29 08:30:27;;;;;;;70.03;8.60;;;17.90;1.00;;;;;;5053447;28;20526;-74
2022/10/29 08:32:54;;;;;;;65.57;8.20;;;18.20;1.00;;;;;;5054096;28;20478;-75
2022/10/29 08:35:22;;;;;;;69.83;8.87;;;18.30;1.00;;;;;;5053800;28;20460;-74
2022/10/29 08:37:49;;;;;;;69.00;8.60;;;18.50;1.00;;;;;;5054251;28;20872;-74
2022/10/29 08:40:29;;;;;;;64.90;7.53;;;18.80;1.00;;;;;;5053268;28;20562;-75
2022/10/29 08:43:21;;;;;;;66.40;7.97;;;18.70;1.00;;;;;;5054132;28;20451;-74
2022/10/29 08:45:50;;;;;;;65.30;8.30;;;18.70;1.00;;;;;;5053763;28;20971;-76
2022/10/29 08:48:28;;;;;;;68.27;8.67;;;19.10;1.00;;;;;;5053767;28;20468;-74
2022/10/29 08:51:03;;;;;;;66.67;8.50;;;19.00;1.00;;;;;;5053120;28;20483;-74
2022/10/29 08:53:36;;;;;;;67.87;7.63;;;18.50;1.00;;;;;;5053715;28;20446;-71
2022/10/29 08:56:06;;;;;;;69.67;7.90;;;18.30;1.00;;;;;;5053495;28;20463;-72
2022/10/29 08:58:39;;;;;;;73.60;7.77;;;18.80;1.00;;;;;;5053055;28;20496;-73
2022/10/29 09:01:11;;;;;;;67.50;8.13;;;18.70;1.00;;;;;;5053798;28;20452;-72
2022/10/29 09:03:37;;;;;;;72.30;8.70;;;18.70;1.00;;;;;;5053760;28;20454;-71
2022/10/29 09:06:12;;;;;;;63.90;7.97;;;18.80;1.00;;;;;;5053380;28;20457;-71
2022/10/29 09:08:51;;;;;;;73.17;8.27;;;19.10;1.00;;;;;;5052521;28;20444;-72
2022/10/29 09:11:34;;;;;;;73.07;8.23;;;19.60;1.00;;;;;;5053596;28;20487;-71
2022/10/29 09:14:17;;;;;;;67.07;7.50;;;20.30;1.00;;;;;;5053438;28;20466;-73
2022/10/29 09:16:50;;;;;;;75.93;8.23;;;20.70;1.00;;;;;;5053272;28;20476;-74
2022/10/29 09:19:36;;;;;;;67.83;7.67;;;21.10;1.00;;;;;;5052339;28;20456;-74
2022/10/29 09:22:14;;;;;;;69.70;7.53;;;21.30;1.00;;;;;;5053269;28;20805;-74
2022/10/29 09:24:49;;;;;;;72.18;7.53;;;21.50;1.00;;;;;;5048175;28;20447;-74
2022/10/29 09:27:23;;;;;;;66.00;7.53;;;21.60;1.00;;;;;;5052280;28;20225;-74
2022/10/29 09:30:03;;;;;;;67.03;6.97;;;22.60;1.00;;;;;;5047499;28;20452;-71
2022/10/29 09:32:33;;;;;;;65.93;7.40;;;25.30;1.00;;;;;;5052884;28;20470;-73
2022/10/29 09:35:03;;;;;;;65.10;6.00;;;27.60;1.00;;;;;;5052813;28;20463;-74
2022/10/29 09:37:40;;;;;;;63.70;5.77;;;28.90;1.00;;;;;;5052351;28;20492;-74
2022/10/29 09:40:16;;;;;;;61.20;5.87;;;30.40;99.90;;;;;;5051831;28;20452;-72
2022/10/29 09:42:46;;;;;;;68.70;6.17;;;32.60;99.90;;;;;;5052935;28;20462;-72
2022/10/29 09:45:17;;;;;;;73.33;6.80;;;34.40;99.90;;;;;;5052936;28;20451;-72
2022/10/29 09:47:53;;;;;;;64.70;5.63;;;34.90;99.90;;;;;;5052564;28;20556;-72
2022/10/29 09:50:27;;;;;;;65.20;7.20;;;34.80;99.90;;;;;;5051875;28;20724;-72
2022/10/29 09:52:55;;;;;;;66.83;6.60;;;35.40;99.90;;;;;;5052768;28;20448;-73
2022/10/29 09:55:26;;;;;;;64.37;6.17;;;35.90;99.90;;;;;;5052651;28;20448;-72
2022/10/29 09:57:54;;;;;;;65.10;6.20;;;36.20;99.90;;;;;;5052382;28;20492;-72
2022/10/29 10:00:23;;;;;;;70.03;5.97;;;36.80;99.90;;;;;;5051853;28;20795;-72
2022/10/29 10:02:55;;;;;;;62.43;5.93;;;36.50;99.90;;;;;;5052257;28;20452;-72
2022/10/29 10:05:26;;;;;;;66.27;6.33;;;35.00;99.90;;;;;;5052608;28;20452;-72
2022/10/29 10:08:10;;;;;;;70.20;6.13;;;34.60;99.90;;;;;;5052372;28;20484;-72
2022/10/29 10:10:49;;;;;;;65.50;6.10;;;34.30;99.90;;;;;;5051544;28;20448;-73
2022/10/29 10:13:16;;;;;;;65.37;6.17;;;34.40;99.90;;;;;;5052114;28;20447;-72
2022/10/29 10:15:50;;;;;;;64.73;5.83;;;33.90;99.90;;;;;;5052392;28;20448;-72
2022/10/29 10:18:20;;;;;;;65.70;5.80;;;33.30;99.90;;;;;;5051835;28;20545;-72
2022/10/29 10:20:49;;;;;;;68.10;6.00;;;32.70;99.90;;;;;;5051441;28;20441;-72
2022/10/29 10:23:23;;;;;;;66.37;6.50;;;32.20;99.90;;;;;;5052114;28;20444;-72
2022/10/29 10:25:51;;;;;;;64.80;5.77;;;32.80;99.90;;;;;;5052440;28;20448;-72
2022/10/29 10:28:20;;;;;;;65.70;7.70;;;33.20;99.90;;;;;;5052088;28;20470;-72
2022/10/29 10:31:08;;;;;;;69.67;6.40;;;33.80;99.90;;;;;;5051345;28;20451;-73
2022/10/29 10:33:36;;;;;;;65.70;5.33;;;34.70;99.90;;;;;;5051870;28;20448;-72
2022/10/29 10:36:06;;;;;;;68.47;6.10;;;35.60;99.90;;;;;;5051763;28;20456;-72
2022/10/29 10:38:44;;;;;;;63.60;6.13;;;35.20;99.90;;;;;;5051496;28;20487;-72
2022/10/29 10:41:12;;;;;;;62.50;7.07;;;35.50;99.90;;;;;;5051951;28;20455;-72
2022/10/29 10:43:43;;;;;;;66.30;6.90;;;34.90;99.90;;;;;;5051655;28;20444;-72
2022/10/29 10:46:15;;;;;;;70.93;6.80;;;35.10;99.90;;;;;;5049183;28;20464;-74
2022/10/29 10:48:42;;;;;;;62.70;5.80;;;34.80;99.90;;;;;;5049614;28;20457;-72
2022/10/29 10:51:20;;;;;;;64.30;5.27;;;35.00;99.90;;;;;;5051809;28;20455;-73
2022/10/29 10:53:50;;;;;;;72.67;6.20;;;34.80;99.90;;;;;;5051851;28;20800;-73
2022/10/29 10:56:20;;;;;;;62.97;6.03;;;34.00;99.90;;;;;;5051769;28;20475;-73
2022/10/29 10:58:55;;;;;;;64.73;5.60;;;34.90;99.90;;;;;;5050835;28;20476;-73
2022/10/29 11:01:28;;;;;;;63.60;5.87;;;36.10;99.90;;;;;;5051733;28;20458;-73
2022/10/29 11:04:02;;;;;;;63.50;6.10;;;36.10;99.90;;;;;;5051729;28;20457;-73
2022/10/29 11:06:32;;;;;;;65.57;5.70;;;35.20;99.90;;;;;;5051742;28;20467;-73
2022/10/29 11:09:08;;;;;;;64.70;5.90;;;35.30;99.90;;;;;;5050830;28;20452;-73
2022/10/29 11:11:39;;;;;;;68.27;5.90;;;35.80;99.90;;;;;;5051552;28;20459;-73
2022/10/29 11:14:14;;;;;;;70.93;6.20;;;35.50;99.90;;;;;;5051756;28;20456;-74
2022/10/29 11:16:46;;;;;;;70.20;5.77;;;34.90;99.90;;;;;;5051608;28;20474;-74
2022/10/29 11:19:21;;;;;;;62.60;5.30;;;35.80;99.90;;;;;;5050636;28;20498;-74
2022/10/29 11:21:59;;;;;;;63.30;5.33;;;36.20;99.90;;;;;;5051747;28;20816;-73
2022/10/29 11:24:37;;;;;;;65.87;5.90;;;37.10;99.90;;;;;;5051701;28;20881;-73
2022/10/29 11:27:10;;;;;;;61.37;5.40;;;37.90;99.90;;;;;;5051546;28;20467;-73
2022/10/29 11:29:43;;;;;;;65.80;5.67;;;37.80;99.90;;;;;;5050769;28;20451;-73
2022/10/29 11:32:16;;;;;;;65.97;5.83;;;36.80;99.90;;;;;;5051360;28;20436;-73
2022/10/29 11:34:51;;;;;;;63.67;5.30;;;36.10;99.90;;;;;;5051287;28;20462;-74
2022/10/29 11:37:24;;;;;;;63.70;5.60;;;35.70;99.90;;;;;;5051526;28;20456;-73
2022/10/29 11:39:58;;;;;;;67.77;6.03;;;35.20;99.90;;;;;;5050566;28;20494;-73
2022/10/29 11:42:25;;;;;;;64.90;6.00;;;35.70;99.90;;;;;;5051348;28;20544;-74
2022/10/29 11:44:52;;;;;;;63.20;5.40;;;35.70;99.90;;;;;;5051103;28;20452;-74
2022/10/29 11:47:36;;;;;;;64.80;6.47;;;36.00;99.90;;;;;;5051218;28;20480;-74
2022/10/29 11:50:15;;;;;;;68.90;6.43;;;36.90;99.90;;;;;;5050379;28;20448;-73
2022/10/29 11:52:50;;;;;;;63.57;5.10;;;35.50;99.90;;;;;;5050979;28;20451;-73
2022/10/29 11:55:28;;;;;;;63.67;5.20;;;35.50;99.90;;;;;;5052793;28;20447;-73
2022/10/29 11:57:58;;;;;;;67.70;5.63;;;35.60;99.90;;;;;;5054724;28;20559;-73
2022/10/29 12:00:31;;;;;;;67.00;5.60;;;36.10;99.90;;;;;;5054141;28;20458;-74
2022/10/29 12:03:20;;;;;;;63.67;5.77;;;35.10;99.90;;;;;;5054899;28;20980;-73
2022/10/29 12:05:59;;;;;;;65.47;5.60;;;35.80;99.90;;;;;;5054777;28;20452;-73
2022/10/29 12:08:52;;;;;;;64.70;5.40;;;36.40;99.90;;;;;;5054615;28;20464;-73
2022/10/29 12:11:24;;;;;;;62.90;4.83;;;36.20;99.90;;;;;;5054541;28;20547;-73
2022/10/29 12:14:01;;;;;;;63.13;5.40;;;35.10;99.90;;;;;;5054513;28;20455;-74
2022/10/29 12:16:38;;;;;;;63.40;5.80;;;35.40;99.90;;;;;;5054490;28;20468;-75
2022/10/29 12:19:15;;;;;;;68.47;6.03;;;36.00;99.90;;;;;;5053697;28;20483;-73
2022/10/29 12:21:53;;;;;;;65.23;4.97;;;36.90;99.90;;;;;;5054439;28;20447;-73
2022/10/29 12:24:33;;;;;;;66.90;6.47;;;38.40;99.90;;;;;;5054393;28;20452;-74
2022/10/29 12:27:09;;;;;;;75.30;6.67;;;39.30;99.90;;;;;;5054447;28;20816;-74
2022/10/29 12:29:46;;;;;;;61.97;5.37;;;37.40;99.90;;;;;;5053436;28;20963;-74
2022/10/29 12:32:20;;;;;;;69.47;5.83;;;37.20;99.90;;;;;;5054316;28;20448;-74
2022/10/29 12:34:52;;;;;;;70.30;5.90;;;37.80;99.90;;;;;;5053936;28;20460;-74
2022/10/29 12:37:32;;;;;;;67.20;5.97;;;37.90;99.90;;;;;;5054220;28;20480;-74
2022/10/29 12:40:03;;;;;;;63.13;5.87;;;38.30;99.90;;;;;;5053145;28;21019;-73
2022/10/29 12:42:31;;;;;;;71.47;7.27;;;38.40;99.90;;;;;;5054008;28;20448;-73
2022/10/29 12:45:11;;;;;;;65.10;5.80;;;39.10;99.90;;;;;;5053789;28;20456;-74
2022/10/29 12:47:46;;;;;;;65.00;6.10;;;38.90;99.90;;;;;;5053807;28;21071;-74
2022/10/29 12:50:25;;;;;;;63.23;5.60;;;37.90;99.90;;;;;;5053029;28;20450;-75
2022/10/29 12:53:01;;;;;;;69.50;6.40;;;37.10;99.90;;;;;;5053847;28;20574;-74
2022/10/29 12:55:29;;;;;;;74.53;6.37;;;36.50;99.90;;;;;;5053707;28;20452;-74
2022/10/29 12:57:57;;;;;;;67.43;6.53;;;35.80;99.90;;;;;;5053549;28;20468;-73